createdAt,value
2023-02-11T00:00:00.919Z,17.95
2023-02-11T00:02:35.213Z,17.42
2023-02-11T00:05:05.430Z,17.80
2023-02-11T00:07:34.337Z,18.17
2023-02-11T00:10:03.858Z,18.23
2023-02-11T00:12:32.887Z,17.58
2023-02-11T00:15:02.139Z,19.30
2023-02-11T00:17:30.783Z,18.60
2023-02-11T00:20:01.454Z,18.30
2023-02-11T00:22:30.306Z,17.20
2023-02-11T00:24:58.918Z,17.30
2023-02-11T00:27:27.866Z,17.98
2023-02-11T00:29:57.133Z,16.45
2023-02-11T00:32:26.159Z,17.58
2023-02-11T00:35:17.628Z,16.17
2023-02-11T00:37:48.942Z,16.63
2023-02-11T00:40:22.208Z,15.75
2023-02-11T00:42:51.217Z,15.73
2023-02-11T00:45:21.154Z,16.23
2023-02-11T00:47:50.191Z,16.47
2023-02-11T00:50:20.638Z,16.25
2023-02-11T00:52:50.134Z,15.98
2023-02-11T00:55:22.583Z,16.55
2023-02-11T00:57:51.908Z,16.35
2023-02-11T01:00:20.593Z,13.83
2023-02-11T01:02:49.168Z,15.73
2023-02-11T01:05:18.102Z,16.13
2023-02-11T01:07:48.079Z,15.38
2023-02-11T01:10:18.077Z,16.77
2023-02-11T01:12:46.691Z,15.07
2023-02-11T01:15:17.416Z,14.85
2023-02-11T01:17:45.961Z,14.90
2023-02-11T01:20:16.653Z,16.45
2023-02-11T01:22:45.219Z,15.93
2023-02-11T01:25:15.036Z,15.50
2023-02-11T01:27:43.444Z,14.82
2023-02-11T01:30:18.044Z,15.07
2023-02-11T01:32:51.233Z,15.77
2023-02-11T01:35:19.725Z,14.45
2023-02-11T01:37:48.172Z,14.63
2023-02-11T01:40:18.731Z,14.35
2023-02-11T01:42:49.435Z,14.25
2023-02-11T01:45:54.431Z,14.18
2023-02-11T01:48:26.170Z,13.75
2023-02-11T01:50:59.968Z,14.43
2023-02-11T01:53:46.370Z,13.98
2023-02-11T01:56:35.162Z,15.48
2023-02-11T01:59:08.574Z,15.38
2023-02-11T02:01:39.692Z,14.43
2023-02-11T02:04:08.946Z,14.20
2023-02-11T02:06:41.852Z,14.48
2023-02-11T02:09:15.159Z,15.02
2023-02-11T02:11:44.765Z,13.95
2023-02-11T02:14:13.199Z,14.75
2023-02-11T02:16:41.878Z,14.20
2023-02-11T02:19:48.187Z,15.00
2023-02-11T02:22:53.833Z,14.40
2023-02-11T02:25:36.753Z,13.75
2023-02-11T02:28:22.848Z,15.95
2023-02-11T02:31:21.232Z,15.30
2023-02-11T02:33:56.849Z,13.27
2023-02-11T02:36:29.544Z,14.32
2023-02-11T02:39:04.351Z,14.20
2023-02-11T02:41:35.538Z,14.55
2023-02-11T02:44:04.493Z,14.23
2023-02-11T02:46:34.521Z,14.50
2023-02-11T02:49:04.379Z,15.00
2023-02-11T02:51:46.717Z,14.52
2023-02-11T02:54:36.975Z,15.50
2023-02-11T02:57:14.456Z,13.93
2023-02-11T02:59:48.743Z,13.85
2023-02-11T03:02:26.019Z,14.10
2023-02-11T03:05:05.148Z,13.25
2023-02-11T03:07:42.609Z,14.48
2023-02-11T03:10:18.248Z,12.77
2023-02-11T03:12:48.793Z,13.15
2023-02-11T03:15:19.710Z,13.32
2023-02-11T03:17:50.461Z,12.65
2023-02-11T03:20:23.168Z,13.02
2023-02-11T03:22:57.052Z,11.87
2023-02-11T03:25:31.316Z,12.02
2023-02-11T03:28:06.732Z,13.15
2023-02-11T03:30:39.585Z,11.93
2023-02-11T03:33:13.587Z,12.68
2023-02-11T03:35:47.153Z,11.20
2023-02-11T03:38:20.715Z,11.85
2023-02-11T03:40:49.442Z,11.35
2023-02-11T03:43:21.120Z,11.32
2023-02-11T03:45:52.143Z,11.38
2023-02-11T03:48:26.207Z,11.57
2023-02-11T03:50:57.288Z,11.40
2023-02-11T03:53:26.026Z,10.68
2023-02-11T03:56:02.630Z,10.93
2023-02-11T03:58:31.000Z,10.63
2023-02-11T04:00:59.422Z,11.60
2023-02-11T04:03:27.982Z,10.80
2023-02-11T04:05:57.487Z,11.63
2023-02-11T04:08:25.916Z,10.68
2023-02-11T04:10:54.337Z,11.25
2023-02-11T04:13:22.784Z,10.43
2023-02-11T04:15:51.505Z,11.57
2023-02-11T04:18:20.122Z,12.48
2023-02-11T04:20:48.581Z,11.88
2023-02-11T04:23:18.213Z,12.05
2023-02-11T04:25:46.720Z,10.53
2023-02-11T04:28:15.855Z,11.05
2023-02-11T04:30:44.578Z,10.70
2023-02-11T04:33:13.118Z,11.13
2023-02-11T04:35:41.624Z,10.48
2023-02-11T04:38:10.182Z,10.90
2023-02-11T04:40:40.078Z,10.35
2023-02-11T04:43:08.585Z,10.60
2023-02-11T04:45:37.122Z,10.70
2023-02-11T04:48:05.851Z,11.95
2023-02-11T04:50:34.568Z,11.10
2023-02-11T04:53:02.994Z,11.70
2023-02-11T04:55:31.556Z,11.70
2023-02-11T04:58:01.193Z,11.18
2023-02-11T05:00:29.632Z,11.48
2023-02-11T05:02:58.074Z,11.33
2023-02-11T05:05:26.655Z,10.60
2023-02-11T05:07:55.036Z,11.68
2023-02-11T05:10:25.602Z,10.43
2023-02-11T05:12:55.863Z,10.10
2023-02-11T05:15:25.846Z,11.13
2023-02-11T05:17:54.385Z,11.15
2023-02-11T05:20:23.070Z,12.38
2023-02-11T05:22:51.783Z,11.27
2023-02-11T05:25:20.464Z,11.18
2023-02-11T05:27:49.023Z,11.20
2023-02-11T05:30:17.666Z,10.45
2023-02-11T05:32:47.313Z,10.98
2023-02-11T05:35:15.800Z,11.07
2023-02-11T05:37:44.221Z,11.80
2023-02-11T05:40:13.606Z,11.80
2023-02-11T05:42:42.067Z,10.70
2023-02-11T05:45:11.014Z,10.65
2023-02-11T05:47:39.480Z,11.25
2023-02-11T05:50:09.569Z,10.98
2023-02-11T05:52:37.973Z,11.80
2023-02-11T05:55:06.916Z,10.88
2023-02-11T05:57:35.376Z,11.10
2023-02-11T06:00:04.014Z,10.40
2023-02-11T06:02:40.914Z,9.95
2023-02-11T06:05:11.027Z,10.50
2023-02-11T06:07:39.486Z,10.80
2023-02-11T06:10:08.970Z,10.38
2023-02-11T06:12:38.493Z,11.57
2023-02-11T06:15:07.654Z,10.88
2023-02-11T06:17:36.706Z,10.80
2023-02-11T06:20:06.993Z,10.25
2023-02-11T06:22:36.628Z,11.40
2023-02-11T06:25:05.290Z,11.77
2023-02-11T06:27:33.779Z,11.00
2023-02-11T06:30:02.283Z,10.93
2023-02-11T06:32:46.732Z,10.48
2023-02-11T06:35:15.513Z,11.00
2023-02-11T06:37:45.089Z,10.70
2023-02-11T06:40:14.021Z,10.25
2023-02-11T06:42:42.486Z,10.47
2023-02-11T06:45:13.192Z,10.57
2023-02-11T06:47:42.104Z,10.05
2023-02-11T06:50:13.100Z,10.35
2023-02-11T06:52:41.506Z,10.55
2023-02-11T06:55:11.058Z,10.17
2023-02-11T06:57:39.409Z,9.40
2023-02-11T07:00:08.703Z,10.38
2023-02-11T07:02:37.525Z,10.57
2023-02-11T07:05:07.240Z,9.10
2023-02-11T07:07:35.819Z,9.77
2023-02-11T07:10:06.033Z,10.57
2023-02-11T07:12:35.579Z,10.00
2023-02-11T07:15:04.118Z,10.20
2023-02-11T07:17:32.603Z,9.38
2023-02-11T07:20:01.120Z,9.67
2023-02-11T07:22:29.536Z,10.18
2023-02-11T07:24:57.979Z,10.00
2023-02-11T07:27:26.460Z,9.75
2023-02-11T07:29:56.038Z,9.88
2023-02-11T07:32:24.513Z,9.27
2023-02-11T07:34:53.030Z,9.02
2023-02-11T07:37:21.850Z,10.65
2023-02-11T07:39:50.364Z,9.68
2023-02-11T07:42:18.868Z,9.43
2023-02-11T07:44:50.471Z,8.93
2023-02-11T07:47:20.277Z,9.07
2023-02-11T07:49:48.766Z,9.07
2023-02-11T07:52:17.213Z,9.65
2023-02-11T07:54:45.581Z,9.20
2023-02-11T07:57:14.076Z,9.40
2023-02-11T07:59:42.467Z,8.93
2023-02-11T08:02:11.405Z,8.60
2023-02-11T08:04:41.155Z,8.70
2023-02-11T08:07:09.629Z,10.13
2023-02-11T08:09:38.135Z,8.70
2023-02-11T08:12:06.767Z,8.68
2023-02-11T08:14:35.254Z,9.00
2023-02-11T08:17:03.960Z,8.25
2023-02-11T08:19:35.172Z,8.75
2023-02-11T08:22:05.110Z,8.90
2023-02-11T08:24:33.653Z,9.00
2023-02-11T08:27:02.280Z,9.05
2023-02-11T08:29:30.892Z,8.07
2023-02-11T08:31:59.396Z,8.25
2023-02-11T08:34:27.839Z,8.13
2023-02-11T08:36:56.288Z,8.90
2023-02-11T08:39:25.843Z,8.95
2023-02-11T08:41:56.687Z,8.38
2023-02-11T08:44:25.744Z,9.05
2023-02-11T08:46:54.867Z,9.13
2023-02-11T08:49:23.541Z,9.35
2023-02-11T08:51:52.381Z,9.50
2023-02-11T08:54:20.835Z,9.45
2023-02-11T08:56:52.782Z,9.82
2023-02-11T08:59:21.254Z,10.47
2023-02-11T09:01:49.842Z,9.20
2023-02-11T09:04:18.255Z,10.07
2023-02-11T09:06:46.928Z,11.05
2023-02-11T09:09:16.672Z,9.73
2023-02-11T09:11:46.117Z,11.03
2023-02-11T09:14:20.434Z,10.52
2023-02-11T09:16:49.727Z,10.15
2023-02-11T09:19:18.310Z,10.45
2023-02-11T09:21:46.888Z,10.57
2023-02-11T09:24:15.355Z,10.37
2023-02-11T09:26:44.291Z,9.98
2023-02-11T09:29:12.741Z,10.45
2023-02-11T09:31:42.431Z,10.15
2023-02-11T09:34:12.735Z,10.77
2023-02-11T09:36:41.989Z,10.47
2023-02-11T09:39:13.264Z,9.82
2023-02-11T09:42:10.379Z,10.18
2023-02-11T09:44:39.643Z,10.30
2023-02-11T09:47:25.190Z,10.35
2023-02-11T09:49:57.993Z,10.20
2023-02-11T09:52:34.311Z,10.20
2023-02-11T09:55:05.281Z,10.15
2023-02-11T09:57:35.790Z,9.50
2023-02-11T10:00:16.851Z,10.27
2023-02-11T10:02:59.312Z,9.70
2023-02-11T10:05:39.990Z,9.65
2023-02-11T10:08:16.863Z,9.43
2023-02-11T10:10:53.513Z,9.40
2023-02-11T10:13:48.318Z,10.77
2023-02-11T10:16:30.213Z,9.13
2023-02-11T10:19:17.323Z,8.85
2023-02-11T10:21:54.922Z,9.30
2023-02-11T10:24:23.443Z,8.98
2023-02-11T10:26:53.476Z,8.75
2023-02-11T10:29:34.636Z,8.90
2023-02-11T10:32:10.469Z,9.63
2023-02-11T10:34:56.856Z,9.05
2023-02-11T10:37:45.277Z,8.80
2023-02-11T10:40:56.280Z,8.18
2023-02-11T10:44:17.806Z,8.20
2023-02-11T10:46:47.293Z,9.27
2023-02-11T10:50:12.220Z,8.95
2023-02-11T10:55:53.025Z,10.18
2023-02-11T10:58:44.217Z,9.50
2023-02-11T11:01:24.412Z,9.65
2023-02-11T11:03:54.623Z,10.02
2023-02-11T11:06:33.005Z,9.85
2023-02-11T11:09:02.092Z,9.35
2023-02-11T11:11:30.693Z,9.97
2023-02-11T11:14:04.297Z,10.07
2023-02-11T11:16:33.827Z,9.77
2023-02-11T11:19:23.091Z,9.77
2023-02-11T11:21:53.705Z,8.75
2023-02-11T11:24:28.035Z,9.43
2023-02-11T11:26:58.704Z,9.13
2023-02-11T11:29:33.994Z,9.40
2023-02-11T11:32:05.840Z,8.52
2023-02-11T11:34:37.198Z,8.90
2023-02-11T11:37:15.620Z,8.30
2023-02-11T11:39:44.260Z,9.77
2023-02-11T11:42:27.876Z,9.40
2023-02-11T11:45:01.152Z,8.23
2023-02-11T11:47:36.189Z,9.63
2023-02-11T11:50:22.049Z,10.20
2023-02-11T11:53:01.488Z,9.13
2023-02-11T11:55:34.486Z,9.50
2023-02-11T11:58:03.056Z,9.02
2023-02-11T12:00:37.391Z,8.80
2023-02-11T12:03:48.772Z,8.23
2023-02-11T12:06:27.927Z,8.40
2023-02-11T12:09:07.756Z,9.18
2023-02-11T12:11:49.289Z,8.35
2023-02-11T12:14:28.702Z,8.65
2023-02-11T12:17:04.241Z,7.93
2023-02-11T12:19:56.255Z,8.52
2023-02-11T12:22:38.775Z,8.63
2023-02-11T12:25:26.224Z,8.07
2023-02-11T12:28:19.215Z,7.90
2023-02-11T12:31:04.911Z,7.57
2023-02-11T12:33:57.958Z,8.10
2023-02-11T12:36:38.235Z,7.72
2023-02-11T12:39:19.880Z,7.72
2023-02-11T12:42:24.392Z,9.20
2023-02-11T12:45:09.328Z,8.07
2023-02-11T12:47:46.016Z,9.00
2023-02-11T12:50:23.242Z,8.38
2023-02-11T12:53:14.624Z,8.73
2023-02-11T12:55:46.168Z,8.65
2023-02-11T12:58:19.780Z,7.73
2023-02-11T13:00:52.529Z,7.57
2023-02-11T13:03:26.735Z,8.30
2023-02-11T13:05:59.046Z,7.95
2023-02-11T13:08:32.437Z,7.82
2023-02-11T13:11:03.242Z,7.90
2023-02-11T13:13:38.046Z,7.28
2023-02-11T13:16:14.116Z,7.40
2023-02-11T13:18:50.763Z,7.30
2023-02-11T13:21:35.042Z,7.25
2023-02-11T13:24:10.804Z,8.00
2023-02-11T13:26:46.708Z,7.97
2023-02-11T13:29:27.452Z,8.32
2023-02-11T13:31:56.836Z,8.18
2023-02-11T13:34:27.055Z,7.93
2023-02-11T13:36:56.981Z,8.27
2023-02-11T13:39:25.421Z,7.75
2023-02-11T13:42:04.339Z,7.55
2023-02-11T13:44:36.127Z,7.20
2023-02-11T13:47:06.094Z,7.95
2023-02-11T13:49:40.440Z,7.00
2023-02-11T13:52:24.874Z,7.57
2023-02-11T13:54:55.717Z,7.10
2023-02-11T13:57:30.537Z,6.90
2023-02-11T14:00:01.723Z,7.18
2023-02-11T14:02:50.927Z,7.43
2023-02-11T14:05:48.671Z,7.13
2023-02-11T14:08:42.917Z,7.35
2023-02-11T14:11:45.529Z,6.95
2023-02-11T14:14:17.968Z,7.35
2023-02-11T14:17:27.817Z,7.67
2023-02-11T14:19:57.690Z,7.38
2023-02-11T14:22:29.204Z,7.45
2023-02-11T14:25:00.831Z,7.32
2023-02-11T14:27:41.813Z,7.25
2023-02-11T14:30:29.083Z,7.23
2023-02-11T14:33:30.627Z,6.55
2023-02-11T14:36:11.902Z,7.40
2023-02-11T14:38:53.754Z,6.82
2023-02-11T14:41:25.585Z,7.53
2023-02-11T14:43:56.881Z,7.77
2023-02-11T14:46:28.521Z,7.43
2023-02-11T14:48:59.969Z,7.65
2023-02-11T14:51:36.177Z,7.18
2023-02-11T14:54:15.200Z,7.80
2023-02-11T14:56:44.521Z,7.03
2023-02-11T14:59:20.570Z,7.40
2023-02-11T15:01:52.144Z,7.80
2023-02-11T15:04:26.372Z,8.48
2023-02-11T15:07:02.829Z,7.85
2023-02-11T15:09:35.213Z,8.40
2023-02-11T15:12:03.537Z,8.52
2023-02-11T15:14:36.396Z,7.93
2023-02-11T15:17:07.484Z,7.88
2023-02-11T15:19:45.929Z,7.65
2023-02-11T15:22:21.954Z,8.37
2023-02-11T15:25:04.058Z,7.90
2023-02-11T15:27:41.159Z,8.27
2023-02-11T15:30:27.084Z,8.30
2023-02-11T15:32:58.823Z,7.88
2023-02-11T15:35:30.046Z,8.70
2023-02-11T15:38:01.016Z,7.93
2023-02-11T15:40:32.421Z,7.72
2023-02-11T15:43:03.650Z,7.25
2023-02-11T15:45:34.419Z,7.95
2023-02-11T15:48:10.686Z,7.27
2023-02-11T15:50:40.977Z,7.68
2023-02-11T15:53:24.058Z,7.03
2023-02-11T15:55:54.687Z,7.65
2023-02-11T15:58:24.111Z,6.93
2023-02-11T16:01:09.081Z,7.90
2023-02-11T16:03:42.913Z,7.30
2023-02-11T16:06:28.067Z,7.32
2023-02-11T16:09:04.085Z,7.35
2023-02-11T16:11:47.968Z,7.90
2023-02-11T16:14:23.714Z,7.47
2023-02-11T16:16:59.573Z,7.85
2023-02-11T16:19:29.017Z,7.70
2023-02-11T16:21:59.532Z,8.10
2023-02-11T16:24:31.547Z,8.75
2023-02-11T16:27:02.139Z,8.50
2023-02-11T16:29:32.377Z,8.02
2023-02-11T16:32:09.214Z,8.48
2023-02-11T16:34:38.373Z,8.70
2023-02-11T16:37:08.492Z,52.08
2023-02-11T16:39:38.263Z,26.50
2023-02-11T16:42:07.707Z,32.15
2023-02-11T16:44:36.791Z,11.95
2023-02-11T16:47:06.921Z,9.82
2023-02-11T16:49:38.234Z,9.80
2023-02-11T16:52:09.386Z,10.50
2023-02-11T16:54:38.928Z,10.00
2023-02-11T16:57:14.971Z,8.98
2023-02-11T16:59:45.082Z,10.18
2023-02-11T17:02:17.826Z,8.90
2023-02-11T17:04:46.597Z,8.90
2023-02-11T17:07:15.207Z,9.15
2023-02-11T17:09:44.832Z,9.10
2023-02-11T17:12:13.296Z,9.65
2023-02-11T17:14:41.777Z,9.75
2023-02-11T17:17:10.748Z,9.73
2023-02-11T17:19:40.005Z,10.40
2023-02-11T17:22:10.130Z,9.30
2023-02-11T17:24:38.884Z,9.20
2023-02-11T17:27:09.163Z,10.30
2023-02-11T17:29:38.169Z,10.20
2023-02-11T17:32:06.578Z,10.23
2023-02-11T17:34:35.014Z,10.02
2023-02-11T17:37:08.952Z,9.93
2023-02-11T17:39:39.224Z,11.10
2023-02-11T17:42:11.816Z,11.03
2023-02-11T17:44:40.255Z,10.50
2023-02-11T17:47:08.780Z,10.23
2023-02-11T17:49:37.342Z,10.85
2023-02-11T17:52:05.750Z,9.80
2023-02-11T17:54:34.112Z,11.00
2023-02-11T17:57:02.530Z,10.15
2023-02-11T17:59:35.481Z,10.15
2023-02-11T18:02:04.190Z,10.95
2023-02-11T18:04:33.236Z,10.70
2023-02-11T18:07:04.527Z,10.93
2023-02-11T18:09:32.993Z,11.82
2023-02-11T18:12:01.343Z,11.25
2023-02-11T18:14:29.744Z,11.20
2023-02-11T18:16:59.234Z,10.48
2023-02-11T18:19:30.658Z,11.57
2023-02-11T18:22:01.062Z,11.45
2023-02-11T18:24:30.238Z,11.60
2023-02-11T18:26:58.813Z,11.27
2023-02-11T18:29:27.697Z,11.38
2023-02-11T18:32:00.283Z,11.43
2023-02-11T18:34:29.437Z,11.95
2023-02-11T18:36:58.214Z,11.25
2023-02-11T18:39:27.562Z,11.13
2023-02-11T18:41:59.108Z,10.93
2023-02-11T18:44:27.894Z,11.70
2023-02-11T18:46:56.576Z,11.10
2023-02-11T18:49:26.360Z,10.88
2023-02-11T18:52:08.706Z,11.82
2023-02-11T18:54:47.801Z,11.75
2023-02-11T18:57:16.696Z,12.00
2023-02-11T18:59:45.405Z,10.60
2023-02-11T19:02:14.296Z,11.02
2023-02-11T19:04:44.157Z,11.57
2023-02-11T19:07:13.238Z,13.65
2023-02-11T19:09:41.958Z,13.73
2023-02-11T19:12:12.117Z,13.25
2023-02-11T19:14:41.395Z,13.93
2023-02-11T19:17:12.756Z,13.18
2023-02-11T19:19:42.238Z,13.02
2023-02-11T19:22:12.363Z,13.17
2023-02-11T19:24:41.594Z,12.32
2023-02-11T19:27:10.549Z,12.48
2023-02-11T19:29:42.157Z,12.90
2023-02-11T19:32:11.849Z,12.90
2023-02-11T19:34:42.270Z,12.57
2023-02-11T19:37:14.243Z,12.48
2023-02-11T19:39:43.959Z,12.80
2023-02-11T19:42:13.144Z,11.95
2023-02-11T19:44:43.564Z,11.95
2023-02-11T19:47:14.177Z,12.03
2023-02-11T19:49:43.095Z,13.82
2023-02-11T19:57:01.263Z,11.73
2023-02-11T20:00:18.313Z,12.23
2023-02-11T20:03:03.536Z,11.77
2023-02-11T20:06:13.108Z,11.93
2023-02-11T20:08:42.177Z,12.52
2023-02-11T20:11:12.646Z,11.70
2023-02-11T20:13:43.351Z,14.07
2023-02-11T20:16:17.055Z,11.80
2023-02-11T20:18:46.853Z,65.63
2023-02-11T20:21:17.598Z,46.03
2023-02-11T20:23:46.826Z,38.13
2023-02-11T20:26:17.823Z,26.48
2023-02-11T20:28:47.050Z,32.70
2023-02-11T20:31:17.899Z,26.02
2023-02-11T20:33:47.450Z,29.85
2023-02-11T20:36:18.127Z,21.40
2023-02-11T20:38:47.112Z,68.43
2023-02-11T20:41:17.669Z,69.67
2023-02-11T20:43:48.583Z,37.47
2023-02-11T20:46:20.478Z,22.52
2023-02-11T20:48:49.917Z,36.45
2023-02-11T20:51:21.090Z,27.35
2023-02-11T20:53:51.453Z,51.90
2023-02-11T20:56:23.380Z,51.00
2023-02-11T20:58:53.514Z,16.83
2023-02-11T21:01:26.010Z,14.60
2023-02-11T21:03:56.614Z,66.22
2023-02-11T21:06:27.555Z,75.93
2023-02-11T21:08:58.106Z,86.68
2023-02-11T21:11:31.402Z,16.27
2023-02-11T21:14:00.359Z,13.55
2023-02-11T21:16:30.716Z,12.35
2023-02-11T21:19:01.011Z,48.73
2023-02-11T21:21:32.575Z,32.53
2023-02-11T21:24:01.663Z,42.53
2023-02-11T21:26:30.364Z,24.75
2023-02-11T21:28:59.147Z,74.45
2023-02-11T21:31:31.619Z,42.07
2023-02-11T21:34:00.396Z,38.65
2023-02-11T21:36:30.002Z,39.65
2023-02-11T21:38:58.739Z,17.25
2023-02-11T21:41:51.253Z,58.63
2023-02-11T21:44:23.582Z,34.63
2023-02-11T21:46:55.559Z,45.03
2023-02-11T21:49:43.287Z,46.05
2023-02-11T21:52:11.911Z,48.10
2023-02-11T21:54:40.479Z,57.50
2023-02-11T21:57:08.947Z,42.17
2023-02-11T21:59:37.459Z,36.20
2023-02-11T22:02:10.430Z,16.42
2023-02-11T22:04:40.111Z,14.65
2023-02-11T22:07:08.678Z,13.50
2023-02-11T22:09:39.625Z,14.73
2023-02-11T22:12:10.765Z,14.25
2023-02-11T22:14:39.903Z,15.43
2023-02-11T22:17:09.492Z,14.30
2023-02-11T22:19:38.048Z,14.50
2023-02-11T22:22:08.147Z,14.27
2023-02-11T22:24:36.752Z,13.32
2023-02-11T22:27:08.189Z,13.00
2023-02-11T22:29:36.497Z,12.50
2023-02-11T22:32:07.071Z,12.50
2023-02-11T22:34:40.179Z,12.00
2023-02-11T22:37:08.642Z,12.55
2023-02-11T22:39:36.994Z,13.15
2023-02-11T22:42:05.890Z,12.50
2023-02-11T22:44:39.455Z,12.40
2023-02-11T22:47:10.658Z,13.00
2023-02-11T22:49:41.468Z,13.40
2023-02-11T22:52:10.079Z,13.63
2023-02-11T22:54:44.359Z,12.93
2023-02-11T22:57:29.761Z,12.52
2023-02-11T23:00:03.394Z,12.37
2023-02-11T23:02:33.087Z,12.35
2023-02-11T23:05:05.591Z,12.30
2023-02-11T23:07:33.956Z,12.00
2023-02-11T23:10:02.596Z,12.95
2023-02-11T23:12:31.714Z,13.63
2023-02-11T23:15:05.026Z,14.57
2023-02-11T23:17:33.842Z,15.43
2023-02-11T23:20:05.887Z,16.98
2023-02-11T23:22:34.348Z,16.50
2023-02-11T23:25:14.164Z,15.80
2023-02-11T23:27:49.049Z,16.20
2023-02-11T23:30:26.753Z,15.80
2023-02-11T23:32:55.377Z,17.15
2023-02-11T23:35:24.915Z,16.83
2023-02-11T23:37:54.054Z,17.53
2023-02-11T23:40:22.842Z,17.85
2023-02-11T23:42:51.353Z,18.75
2023-02-11T23:45:19.788Z,18.35
2023-02-11T23:47:48.615Z,20.08
2023-02-11T23:50:16.994Z,21.20
2023-02-11T23:52:46.494Z,19.45
2023-02-11T23:55:14.909Z,19.98
2023-02-11T23:57:45.921Z,19.45
